Flight Track Log - Related Links

Times and Time Zones

All times are in EDT time to prevent confusion due to time zone crossing. See the DAL3672 flight status page for this flight to view local times or setup timezone preferences in your user account.

Time Position Orientation Groundspeed Altitude Reporting Facility
EDT Latitude Longitude Course Direction KTS MPH feet Rate Location/Type
Tue 12:38:29 PM 42.9500 -71.4167 270° West 142 163 1,400  Level KA90
Tue 12:39:29 PM 43.0000 -71.4000 14° North 204 235 3,500 2,336 Climbing KA90
Tue 12:40:40 PM 43.0589 -71.4597 323° Northwest 245 282 6,500 2,492 Climbing Boston Center
Tue 12:41:00 PM 42.9417 -71.8248 279° West  Level FlightAware Approximate
Tue 12:41:39 PM 43.0825 -71.5447 291° West 252 290 8,900  Level Boston Center
Tue 12:42:00 PM 42.9500 -71.9557 270° West  Level FlightAware Approximate
Tue 12:42:39 PM 43.0875 -71.6639 273° West 280 322 11,000  Level Boston Center
Tue 12:43:00 PM 42.9501 -72.0876 270° West  Level FlightAware Approximate
Tue 12:43:39 PM 43.0903 -71.7778 272° West 317 365 11,900  Level Boston Center
Tue 12:44:39 PM 43.0975 -71.9256 274° West 353 406 13,900 1,884 Climbing Boston Center
Tue 12:45:40 PM 43.1000 -72.0506 272° West 364 419 15,700 1,900 Climbing Boston Center
Tue 12:46:39 PM 43.1044 -72.2011 272° West 364 419 17,700 1,613 Climbing Boston Center
Tue 12:47:39 PM 43.1111 -72.3264 274° West 364 419 18,900 1,350 Climbing Boston Center
Tue 12:48:39 PM 43.1214 -72.4600 276° West 364 419 20,400 1,488 Climbing Boston Center
Tue 12:49:40 PM 43.1256 -72.5967 272° West 364 419 21,900 1,339 Climbing Boston Center
Tue 12:50:40 PM 43.1231 -72.7444 269° West 364 419 23,100 1,109 Climbing Boston Center
Tue 12:51:39 PM 43.1247 -72.8867 271° West 364 419 24,100 958 Climbing Boston Center
Tue 12:52:39 PM 43.1306 -73.0147 274° West 369 425 25,000 942 Climbing Boston Center
Tue 12:53:40 PM 43.1339 -73.1569 272° West 369 425 26,000 500 Climbing Boston Center
Tue 12:54:39 PM 43.1369 -73.3164 272° West 383 441 26,000  Level Boston Center
Tue 12:55:39 PM 43.1356 -73.4614 269° West 383 441 26,000  Level Boston Center
Tue 12:56:39 PM 43.1406 -73.6153 273° West 390 449 26,000  Level Boston Center
Tue 12:57:40 PM 43.1431 -73.7547 271° West 390 449 26,000  Level Boston Center
Tue 12:58:40 PM 43.1456 -73.9056 271° West 401 461 26,000  Level Boston Center
Tue 12:59:39 PM 43.1478 -74.0481 271° West 401 461 26,000  Level Boston Center
Tue 01:00:40 PM 43.1494 -74.2017 271° West 401 461 26,000  Level Boston Center
Tue 01:01:39 PM 43.1514 -74.3525 271° West 401 461 26,000  Level Boston Center
Tue 01:02:40 PM 43.1547 -74.5092 272° West 401 461 26,000  Level Boston Center
Tue 01:03:40 PM 43.1561 -74.6631 271° West 406 467 26,000  Level Boston Center
Tue 01:04:39 PM 43.1569 -74.8253 270° West 412 474 26,000  Level Boston Center
Tue 01:05:40 PM 43.1578 -74.9875 270° West 423 487 26,000  Level Boston Center
Tue 01:06:39 PM 43.1581 -75.1556 270° West 428 493 26,000  Level Boston Center
Tue 01:07:40 PM 43.1597 -75.3378 271° West 433 498 26,000  Level Boston Center
Tue 01:08:40 PM 43.1617 -75.5031 271° West 445 512 26,000  Level Boston Center
Tue 01:09:40 PM 43.1611 -75.6739 270° West 445 512 26,000  Level Boston Center
Tue 01:10:40 PM 43.1625 -75.8419 271° West 445 512 26,000  Level Boston Center
Tue 01:13:02 PM 43.1564 -76.2456 269° West 439 505 26,000  Level Cleveland Center
Tue 01:14:02 PM 43.1417 -76.4172 263° West 446 513 26,000  Level Cleveland Center
Tue 01:15:02 PM 43.1289 -76.5833 264° West 446 513 26,000  Level Cleveland Center
Tue 01:16:02 PM 43.1133 -76.7378 262° West 446 513 26,000  Level Cleveland Center
Tue 01:17:02 PM 43.0978 -76.9039 263° West 446 513 26,000  Level Cleveland Center
Tue 01:18:02 PM 43.0844 -77.0722 264° West 446 513 26,000  Level Cleveland Center
Tue 01:19:02 PM 43.0683 -77.2353 262° West 446 513 26,000  Level Cleveland Center
Tue 01:20:02 PM 43.0522 -77.4008 262° West 446 513 26,000  Level Cleveland Center
Tue 01:21:02 PM 43.0378 -77.5636 263° West 446 513 26,000  Level Cleveland Center
Tue 01:22:02 PM 43.0211 -77.7292 262° West 446 513 26,000  Level Cleveland Center
Tue 01:23:02 PM 43.0064 -77.8975 263° West 446 513 26,000  Level Cleveland Center
Tue 01:24:02 PM 42.9892 -78.0600 262° West 446 513 26,000  Level Cleveland Center
Tue 01:25:02 PM 42.9739 -78.2222 263° West 446 513 26,000  Level Cleveland Center
Tue 01:26:02 PM 42.9544 -78.4047 262° West 446 513 26,000  Level Cleveland Center
Tue 01:27:02 PM 42.9422 -78.5328 263° West 446 513 26,000  Level Cleveland Center
Tue 01:28:02 PM 42.9183 -78.7292 261° West 446 513 26,000  Level Cleveland Center
Tue 01:29:02 PM 42.8958 -78.8883 259° West 446 513 26,000  Level Cleveland Center
Tue 01:30:02 PM 42.8753 -79.0478 260° West 446 513 26,000  Level Cleveland Center
Tue 01:31:02 PM 42.8481 -79.2069 257° West 441 507 26,000  Level Cleveland Center
Tue 01:32:02 PM 42.8286 -79.3319 258° West 435 501 26,000  Level Cleveland Center
Tue 01:33:02 PM 42.8056 -79.5192 261° West 424 488 26,000  Level Cleveland Center
Tue 01:34:02 PM 42.7797 -79.6781 258° West 424 488 26,000 -350 Level Cleveland Center
Tue 01:35:02 PM 42.7558 -79.8367 258° West 429 494 25,300 -850 Descending Cleveland Center
Tue 01:36:02 PM 42.7464 -80.0008 266° West 429 494 24,300 -1,000 Descending Cleveland Center
Tue 01:37:02 PM 42.7386 -80.1619 266° West 429 494 23,300 -1,000 Descending Cleveland Center
Tue 01:38:02 PM 42.7331 -80.3203 267° West 429 494 22,300 -1,000 Descending Cleveland Center
Tue 01:39:02 PM 42.7269 -80.4786 267° West 423 487 21,300 -1,000 Descending Cleveland Center
Tue 01:40:02 PM 42.7167 -80.6311 265° West 423 487 20,300 -650 Descending Cleveland Center
Tue 01:41:02 PM 42.7122 -80.7894 268° West 413 475 20,000 -150 Descending Cleveland Center
Tue 01:42:02 PM 42.7014 -80.9364 264° West 403 464 20,000  Level Cleveland Center
Tue 01:43:02 PM 42.6842 -81.0886 261° West 409 471 20,000  Level Cleveland Center
Tue 01:44:02 PM 42.6667 -81.2356 261° West 404 465 20,000  Level Cleveland Center
Tue 01:45:02 PM 42.6492 -81.3878 261° West 411 473 20,000 -300 Level Cleveland Center
Tue 01:46:02 PM 42.6336 -81.5172 261° West 405 466 19,400 -900 Descending Cleveland Center
Tue 01:47:02 PM 42.6158 -81.6525 260° West 384 442 18,200 -1,050 Descending Cleveland Center
Tue 01:48:02 PM 42.6042 -81.7622 262° West 332 382 17,300 -950 Descending Cleveland Center
Tue 01:49:02 PM 42.5906 -81.8664 260° West 301 346 16,300 -1,000 Descending Cleveland Center
Tue 01:50:02 PM 42.5789 -81.9706 261° West 289 333 15,300 -1,000 Descending Cleveland Center
Tue 01:51:02 PM 42.5672 -82.0717 261° West 284 327 14,300 -1,069 Descending Cleveland Center
Tue 01:51:43 PM 42.5558 -82.1475 259° West 275 316 13,500 -1,100 Descending Cleveland Center
Tue 01:52:02 PM 42.5533 -82.1728 262° West 277 319 13,200 -1,075 Descending Cleveland Center
Tue 01:52:50 PM 42.5458 -82.2686 264° West 274 315 12,300 -661 Descending Cleveland Center
Tue 01:53:51 PM 42.5317 -82.3694 259° West 262 302 12,000 -146 Descending Cleveland Center
Tue 01:54:53 PM 42.5178 -82.4706 259° West 270 311 12,000  Level Cleveland Center
Tue 01:55:54 PM 42.4994 -82.5658 255° West 265 305 12,000 -558 Level Cleveland Center
Tue 01:57:02 PM 42.4686 -82.6519 244° Southwest 272 313 10,800 -1,366 Descending Cleveland Center
Tue 01:57:57 PM 42.4378 -82.7411 245° Southwest 259 298 9,200 -1,138 Descending Cleveland Center
Tue 01:58:58 PM 42.4214 -82.8361 257° West 253 291 8,600 -1,033 Descending Cleveland Center
Tue 01:59:59 PM 42.4278 -82.9347 275° West 264 304 7,100 -738 Descending Cleveland Center
Tue 02:01:00 PM 42.4364 -83.0197 278° West 198 228 7,100 -293 Level Cleveland Center
Tue 02:02:02 PM 42.4517 -83.0933 286° West 193 222 6,500 -824 Descending Cleveland Center
Tue 02:02:42 PM 42.4317 -83.1253 230° Southwest 183 211 5,700 -1,100 Descending FAA TRACON SMA TRACON (SMA)
Tue 02:03:02 PM 42.4219 -83.1400 228° Southwest 181 208 5,400 -769 Descending FAA TRACON SMA TRACON (SMA)
Tue 02:03:21 PM 42.4111 -83.1569 229° Southwest 160 184 5,200 -615 Descending FAA TRACON SMA TRACON (SMA)
Tue 02:03:41 PM 42.4003 -83.1725 227° Southwest 149 171 5,000 -732 Descending FAA TRACON SMA TRACON (SMA)
Tue 02:04:02 PM 42.3922 -83.1831 224° Southwest 144 166 4,700 -878 Descending FAA TRACON SMA TRACON (SMA)
Tue 02:04:22 PM 42.3831 -83.1972 229° Southwest 142 163 4,400 -750 Descending FAA TRACON SMA TRACON (SMA)
Tue 02:04:42 PM 42.3722 -83.2114 224° Southwest 140 161 4,200 -462 Descending FAA TRACON SMA TRACON (SMA)
Tue 02:05:01 PM 42.3639 -83.2214 222° Southwest 139 160 4,100 -308 Descending FAA TRACON SMA TRACON (SMA)
Tue 02:05:21 PM 42.3531 -83.2336 220° Southwest 140 161 4,000 -419 Descending FAA TRACON SMA TRACON (SMA)
Tue 02:05:44 PM 42.3433 -83.2419 212° Southwest 141 162 3,800 -955 Descending FAA TRACON SMA TRACON (SMA)
Tue 02:06:05 PM 42.3286 -83.2533 210° Southwest 143 165 3,300 -1,263 Descending FAA TRACON SMA TRACON (SMA)
Tue 02:06:22 PM 42.3183 -83.2606 207° Southwest 150 173 3,000 -811 Descending FAA TRACON SMA TRACON (SMA)
Tue 02:06:42 PM 42.3067 -83.2692 209° Southwest 151 174 2,800 -769 Descending FAA TRACON SMA TRACON (SMA)
Tue 02:07:01 PM 42.2939 -83.2792 210° Southwest 142 163 2,500 -923 Descending FAA TRACON SMA TRACON (SMA)
Tue 02:07:21 PM 42.2839 -83.2869 210° Southwest 136 157 2,200 -900 Descending FAA TRACON SMA TRACON (SMA)

Login

Don't have an account? Register now (free) for customized features, flight alerts, and more!